sensor_id;sensor_type;location;lat;lon;timestamp;pressure;altitude;pressure_sealevel;temperature;humidity
12203;BME280;6164;42.178;24.622;2024-01-16T00:00:14;98393.78;;;1.18;100.00
12203;BME280;6164;42.178;24.622;2024-01-16T00:02:40;98398.81;;;1.10;100.00
12203;BME280;6164;42.178;24.622;2024-01-16T00:05:08;98389.41;;;1.00;100.00
12203;BME280;6164;42.178;24.622;2024-01-16T00:07:38;98374.25;;;0.95;100.00
12203;BME280;6164;42.178;24.622;2024-01-16T00:10:07;98373.25;;;1.06;100.00
12203;BME280;6164;42.178;24.622;2024-01-16T00:12:33;98384.34;;;1.08;100.00
12203;BME280;6164;42.178;24.622;2024-01-16T00:15:00;98384.50;;;0.97;100.00
12203;BME280;6164;42.178;24.622;2024-01-16T00:17:26;98392.94;;;0.99;100.00
12203;BME280;6164;42.178;24.622;2024-01-16T00:19:53;98397.34;;;0.98;100.00
12203;BME280;6164;42.178;24.622;2024-01-16T00:22:20;98403.09;;;1.02;100.00
12203;BME280;6164;42.178;24.622;2024-01-16T00:24:49;98401.03;;;1.05;100.00
12203;BME280;6164;42.178;24.622;2024-01-16T00:27:15;98397.19;;;1.09;100.00
12203;BME280;6164;42.178;24.622;2024-01-16T00:29:42;98392.53;;;1.13;100.00
12203;BME280;6164;42.178;24.622;2024-01-16T00:32:08;98395.16;;;1.03;100.00
12203;BME280;6164;42.178;24.622;2024-01-16T00:34:35;98399.94;;;0.89;100.00
12203;BME280;6164;42.178;24.622;2024-01-16T00:37:01;98399.69;;;0.82;100.00
12203;BME280;6164;42.178;24.622;2024-01-16T00:39:29;98400.47;;;0.73;100.00
12203;BME280;6164;42.178;24.622;2024-01-16T00:41:56;98401.69;;;0.69;100.00
12203;BME280;6164;42.178;24.622;2024-01-16T00:44:22;98395.44;;;0.72;100.00
12203;BME280;6164;42.178;24.622;2024-01-16T00:46:49;98388.72;;;0.69;100.00
12203;BME280;6164;42.178;24.622;2024-01-16T00:49:15;98386.66;;;0.63;100.00
12203;BME280;6164;42.178;24.622;2024-01-16T00:51:42;98372.34;;;0.59;100.00
12203;BME280;6164;42.178;24.622;2024-01-16T00:54:07;98364.13;;;0.64;100.00
12203;BME280;6164;42.178;24.622;2024-01-16T00:56:36;98372.06;;;0.62;100.00
12203;BME280;6164;42.178;24.622;2024-01-16T00:59:02;98366.72;;;0.54;100.00
12203;BME280;6164;42.178;24.622;2024-01-16T01:01:29;98357.97;;;0.55;100.00
12203;BME280;6164;42.178;24.622;2024-01-16T01:03:55;98352.50;;;0.49;100.00
12203;BME280;6164;42.178;24.622;2024-01-16T01:06:22;98361.63;;;0.43;100.00
12203;BME280;6164;42.178;24.622;2024-01-16T01:08:49;98366.16;;;0.41;100.00
12203;BME280;6164;42.178;24.622;2024-01-16T01:11:16;98364.91;;;0.45;100.00
12203;BME280;6164;42.178;24.622;2024-01-16T01:13:44;98368.75;;;0.51;100.00
12203;BME280;6164;42.178;24.622;2024-01-16T01:16:10;98363.16;;;0.55;100.00
12203;BME280;6164;42.178;24.622;2024-01-16T01:18:37;98354.81;;;0.61;100.00
12203;BME280;6164;42.178;24.622;2024-01-16T01:21:03;98346.88;;;0.63;100.00
12203;BME280;6164;42.178;24.622;2024-01-16T01:23:30;98351.56;;;0.69;100.00
12203;BME280;6164;42.178;24.622;2024-01-16T01:25:58;98335.69;;;0.72;100.00
12203;BME280;6164;42.178;24.622;2024-01-16T01:28:24;98331.97;;;0.74;100.00
12203;BME280;6164;42.178;24.622;2024-01-16T01:30:52;98332.66;;;0.76;100.00
12203;BME280;6164;42.178;24.622;2024-01-16T01:33:18;98328.84;;;0.80;100.00
12203;BME280;6164;42.178;24.622;2024-01-16T01:35:45;98327.88;;;0.81;100.00
12203;BME280;6164;42.178;24.622;2024-01-16T01:38:12;98336.78;;;0.79;100.00
12203;BME280;6164;42.178;24.622;2024-01-16T01:40:38;98347.72;;;0.82;100.00
12203;BME280;6164;42.178;24.622;2024-01-16T01:43:17;98340.59;;;0.84;100.00
12203;BME280;6164;42.178;24.622;2024-01-16T01:45:44;98341.69;;;0.82;100.00
12203;BME280;6164;42.178;24.622;2024-01-16T01:48:15;98354.00;;;0.89;100.00
12203;BME280;6164;42.178;24.622;2024-01-16T01:50:42;98354.56;;;0.74;100.00
12203;BME280;6164;42.178;24.622;2024-01-16T01:53:09;98355.78;;;0.60;100.00
12203;BME280;6164;42.178;24.622;2024-01-16T01:55:35;98356.06;;;0.57;100.00
12203;BME280;6164;42.178;24.622;2024-01-16T01:58:02;98345.25;;;0.62;100.00
12203;BME280;6164;42.178;24.622;2024-01-16T02:00:29;98346.22;;;0.61;100.00
12203;BME280;6164;42.178;24.622;2024-01-16T02:02:56;98358.66;;;0.67;100.00
12203;BME280;6164;42.178;24.622;2024-01-16T02:05:24;98346.09;;;0.62;100.00
12203;BME280;6164;42.178;24.622;2024-01-16T02:07:51;98342.25;;;0.66;100.00
12203;BME280;6164;42.178;24.622;2024-01-16T02:10:18;98340.75;;;0.64;100.00
12203;BME280;6164;42.178;24.622;2024-01-16T02:12:45;98342.53;;;0.63;100.00
12203;BME280;6164;42.178;24.622;2024-01-16T02:15:12;98349.06;;;0.58;100.00
12203;BME280;6164;42.178;24.622;2024-01-16T02:17:39;98348.81;;;0.61;100.00
12203;BME280;6164;42.178;24.622;2024-01-16T02:20:06;98358.94;;;0.64;100.00
12203;BME280;6164;42.178;24.622;2024-01-16T02:22:34;98360.28;;;0.68;100.00
12203;BME280;6164;42.178;24.622;2024-01-16T02:25:03;98355.91;;;0.49;100.00
12203;BME280;6164;42.178;24.622;2024-01-16T02:27:30;98352.63;;;0.47;100.00
12203;BME280;6164;42.178;24.622;2024-01-16T02:29:57;98344.28;;;0.44;100.00
12203;BME280;6164;42.178;24.622;2024-01-16T02:32:23;98339.22;;;0.33;100.00
12203;BME280;6164;42.178;24.622;2024-01-16T02:34:50;98346.47;;;0.29;100.00
12203;BME280;6164;42.178;24.622;2024-01-16T02:37:17;98341.97;;;0.41;100.00
12203;BME280;6164;42.178;24.622;2024-01-16T02:39:43;98358.25;;;0.52;100.00
12203;BME280;6164;42.178;24.622;2024-01-16T02:42:11;98351.94;;;0.55;100.00
12203;BME280;6164;42.178;24.622;2024-01-16T02:44:39;98335.13;;;0.68;100.00
12203;BME280;6164;42.178;24.622;2024-01-16T02:47:06;98342.50;;;0.73;100.00
12203;BME280;6164;42.178;24.622;2024-01-16T02:49:33;98348.41;;;0.75;100.00
12203;BME280;6164;42.178;24.622;2024-01-16T02:52:02;98353.03;;;0.81;100.00
12203;BME280;6164;42.178;24.622;2024-01-16T02:54:28;98348.00;;;0.89;100.00
12203;BME280;6164;42.178;24.622;2024-01-16T02:56:55;98345.81;;;0.94;100.00
12203;BME280;6164;42.178;24.622;2024-01-16T02:59:23;98363.31;;;0.92;100.00
12203;BME280;6164;42.178;24.622;2024-01-16T03:01:49;98364.78;;;0.94;100.00
12203;BME280;6164;42.178;24.622;2024-01-16T03:04:16;98359.44;;;0.96;100.00
12203;BME280;6164;42.178;24.622;2024-01-16T03:06:42;98366.44;;;0.95;100.00
12203;BME280;6164;42.178;24.622;2024-01-16T03:09:09;98370.00;;;0.94;100.00
12203;BME280;6164;42.178;24.622;2024-01-16T03:11:37;98358.09;;;0.92;100.00
12203;BME280;6164;42.178;24.622;2024-01-16T03:14:04;98361.50;;;0.92;100.00
12203;BME280;6164;42.178;24.622;2024-01-16T03:16:32;98359.44;;;0.96;100.00
12203;BME280;6164;42.178;24.622;2024-01-16T03:18:59;98343.06;;;0.95;100.00
12203;BME280;6164;42.178;24.622;2024-01-16T03:21:26;98363.28;;;1.01;100.00
12203;BME280;6164;42.178;24.622;2024-01-16T03:23:52;98369.56;;;0.99;100.00
12203;BME280;6164;42.178;24.622;2024-01-16T03:26:19;98367.78;;;0.99;100.00
12203;BME280;6164;42.178;24.622;2024-01-16T03:28:46;98356.06;;;0.95;100.00
12203;BME280;6164;42.178;24.622;2024-01-16T03:31:13;98361.25;;;0.95;100.00
12203;BME280;6164;42.178;24.622;2024-01-16T03:33:41;98365.47;;;0.96;100.00
12203;BME280;6164;42.178;24.622;2024-01-16T03:36:08;98374.38;;;1.03;100.00
12203;BME280;6164;42.178;24.622;2024-01-16T03:38:35;98372.31;;;0.97;100.00
12203;BME280;6164;42.178;24.622;2024-01-16T03:41:03;98382.69;;;0.97;100.00
12203;BME280;6164;42.178;24.622;2024-01-16T03:43:31;98385.72;;;0.93;100.00
12203;BME280;6164;42.178;24.622;2024-01-16T03:45:58;98391.47;;;0.96;100.00
12203;BME280;6164;42.178;24.622;2024-01-16T03:48:24;98388.31;;;0.93;100.00
12203;BME280;6164;42.178;24.622;2024-01-16T03:50:52;98399.69;;;0.92;100.00
12203;BME280;6164;42.178;24.622;2024-01-16T03:53:20;98410.06;;;0.92;100.00
12203;BME280;6164;42.178;24.622;2024-01-16T03:55:46;98418.56;;;0.94;100.00
12203;BME280;6164;42.178;24.622;2024-01-16T03:58:13;98406.63;;;0.91;100.00
12203;BME280;6164;42.178;24.622;2024-01-16T04:00:40;98390.50;;;0.97;100.00
12203;BME280;6164;42.178;24.622;2024-01-16T04:03:06;98412.25;;;1.06;100.00
12203;BME280;6164;42.178;24.622;2024-01-16T04:05:33;98419.38;;;1.13;100.00
12203;BME280;6164;42.178;24.622;2024-01-16T04:08:01;98430.69;;;1.22;100.00
12203;BME280;6164;42.178;24.622;2024-01-16T04:10:27;98434.13;;;1.22;100.00
12203;BME280;6164;42.178;24.622;2024-01-16T04:12:54;98442.47;;;1.16;100.00
12203;BME280;6164;42.178;24.622;2024-01-16T04:15:21;98445.47;;;1.21;100.00
12203;BME280;6164;42.178;24.622;2024-01-16T04:17:47;98445.91;;;1.17;100.00
12203;BME280;6164;42.178;24.622;2024-01-16T04:20:14;98454.34;;;1.19;100.00
12203;BME280;6164;42.178;24.622;2024-01-16T04:22:41;98455.34;;;1.08;100.00
12203;BME280;6164;42.178;24.622;2024-01-16T04:25:09;98453.13;;;1.04;100.00
12203;BME280;6164;42.178;24.622;2024-01-16T04:27:36;98452.59;;;1.00;100.00
12203;BME280;6164;42.178;24.622;2024-01-16T04:30:03;98461.19;;;1.01;100.00
12203;BME280;6164;42.178;24.622;2024-01-16T04:32:29;98482.81;;;1.01;100.00
12203;BME280;6164;42.178;24.622;2024-01-16T04:34:57;98477.75;;;1.00;100.00
12203;BME280;6164;42.178;24.622;2024-01-16T04:37:25;98474.31;;;0.99;100.00
12203;BME280;6164;42.178;24.622;2024-01-16T04:39:52;98472.84;;;0.97;100.00
12203;BME280;6164;42.178;24.622;2024-01-16T04:42:20;98489.22;;;0.97;100.00
12203;BME280;6164;42.178;24.622;2024-01-16T04:44:47;98500.84;;;0.84;100.00
12203;BME280;6164;42.178;24.622;2024-01-16T04:47:13;98500.03;;;0.83;100.00
12203;BME280;6164;42.178;24.622;2024-01-16T04:49:41;98501.00;;;0.82;100.00
12203;BME280;6164;42.178;24.622;2024-01-16T04:52:07;98509.44;;;0.84;100.00
12203;BME280;6164;42.178;24.622;2024-01-16T04:54:34;98507.69;;;0.85;100.00
12203;BME280;6164;42.178;24.622;2024-01-16T04:57:01;98520.94;;;0.82;100.00
12203;BME280;6164;42.178;24.622;2024-01-16T04:59:29;98514.09;;;0.81;100.00
12203;BME280;6164;42.178;24.622;2024-01-16T05:01:55;98518.63;;;0.79;100.00
12203;BME280;6164;42.178;24.622;2024-01-16T05:04:22;98524.19;;;0.74;100.00
12203;BME280;6164;42.178;24.622;2024-01-16T05:06:50;98531.53;;;0.69;100.00
12203;BME280;6164;42.178;24.622;2024-01-16T05:09:16;98538.53;;;0.69;100.00
12203;BME280;6164;42.178;24.622;2024-01-16T05:11:44;98542.63;;;0.71;100.00
12203;BME280;6164;42.178;24.622;2024-01-16T05:14:11;98548.25;;;0.76;100.00
12203;BME280;6164;42.178;24.622;2024-01-16T05:16:39;98562.72;;;0.69;100.00
12203;BME280;6164;42.178;24.622;2024-01-16T05:19:05;98570.78;;;0.66;100.00
12203;BME280;6164;42.178;24.622;2024-01-16T05:21:32;98582.91;;;0.56;100.00
12203;BME280;6164;42.178;24.622;2024-01-16T05:23:58;98593.38;;;0.45;100.00
12203;BME280;6164;42.178;24.622;2024-01-16T05:26:25;98601.28;;;0.44;100.00
12203;BME280;6164;42.178;24.622;2024-01-16T05:28:51;98611.38;;;0.37;100.00
12203;BME280;6164;42.178;24.622;2024-01-16T05:31:18;98612.34;;;0.36;100.00
12203;BME280;6164;42.178;24.622;2024-01-16T05:33:46;98609.75;;;0.36;100.00
12203;BME280;6164;42.178;24.622;2024-01-16T05:36:12;98621.66;;;0.48;100.00
12203;BME280;6164;42.178;24.622;2024-01-16T05:38:39;98625.16;;;0.58;100.00
12203;BME280;6164;42.178;24.622;2024-01-16T05:41:05;98635.13;;;0.63;100.00
12203;BME280;6164;42.178;24.622;2024-01-16T05:43:32;98642.72;;;0.75;100.00
12203;BME280;6164;42.178;24.622;2024-01-16T05:45:59;98643.59;;;0.85;100.00
12203;BME280;6164;42.178;24.622;2024-01-16T05:48:25;98639.25;;;0.95;100.00
12203;BME280;6164;42.178;24.622;2024-01-16T05:50:54;98640.78;;;1.07;100.00
12203;BME280;6164;42.178;24.622;2024-01-16T05:53:20;98645.47;;;1.13;100.00
12203;BME280;6164;42.178;24.622;2024-01-16T05:55:47;98657.09;;;1.19;100.00
12203;BME280;6164;42.178;24.622;2024-01-16T05:58:13;98657.81;;;1.30;100.00
12203;BME280;6164;42.178;24.622;2024-01-16T06:00:40;98664.44;;;1.44;100.00
12203;BME280;6164;42.178;24.622;2024-01-16T06:03:06;98668.16;;;1.61;100.00
12203;BME280;6164;42.178;24.622;2024-01-16T06:05:33;98679.00;;;1.75;100.00
12203;BME280;6164;42.178;24.622;2024-01-16T06:08:01;98674.06;;;1.82;100.00
12203;BME280;6164;42.178;24.622;2024-01-16T06:10:28;98687.34;;;1.88;100.00
12203;BME280;6164;42.178;24.622;2024-01-16T06:12:54;98696.25;;;1.95;100.00
12203;BME280;6164;42.178;24.622;2024-01-16T06:15:21;98701.06;;;2.00;100.00
12203;BME280;6164;42.178;24.622;2024-01-16T06:17:48;98695.59;;;2.12;100.00
12203;BME280;6164;42.178;24.622;2024-01-16T06:20:15;98713.13;;;2.20;100.00
12203;BME280;6164;42.178;24.622;2024-01-16T06:22:41;98725.19;;;2.30;100.00
12203;BME280;6164;42.178;24.622;2024-01-16T06:25:09;98727.78;;;2.40;100.00
12203;BME280;6164;42.178;24.622;2024-01-16T06:27:36;98734.91;;;2.57;100.00
12203;BME280;6164;42.178;24.622;2024-01-16T06:30:02;98734.47;;;2.71;100.00
12203;BME280;6164;42.178;24.622;2024-01-16T06:32:30;98744.31;;;2.87;100.00
12203;BME280;6164;42.178;24.622;2024-01-16T06:34:56;98748.00;;;2.94;100.00
12203;BME280;6164;42.178;24.622;2024-01-16T06:37:23;98737.41;;;3.05;100.00
12203;BME280;6164;42.178;24.622;2024-01-16T06:39:49;98754.66;;;3.15;100.00
12203;BME280;6164;42.178;24.622;2024-01-16T06:42:17;98755.03;;;3.30;100.00
12203;BME280;6164;42.178;24.622;2024-01-16T06:44:44;98758.28;;;3.41;100.00
12203;BME280;6164;42.178;24.622;2024-01-16T06:47:14;98765.78;;;3.54;100.00
12203;BME280;6164;42.178;24.622;2024-01-16T06:49:40;98771.50;;;3.67;100.00
12203;BME280;6164;42.178;24.622;2024-01-16T06:52:07;98770.38;;;3.69;100.00
12203;BME280;6164;42.178;24.622;2024-01-16T06:54:34;98782.56;;;3.78;100.00
12203;BME280;6164;42.178;24.622;2024-01-16T06:57:01;98784.81;;;3.91;100.00
12203;BME280;6164;42.178;24.622;2024-01-16T06:59:29;98796.56;;;4.04;100.00
12203;BME280;6164;42.178;24.622;2024-01-16T07:01:55;98812.41;;;4.21;100.00
12203;BME280;6164;42.178;24.622;2024-01-16T07:04:22;98815.06;;;4.38;100.00
12203;BME280;6164;42.178;24.622;2024-01-16T07:06:48;98834.19;;;4.56;100.00
12203;BME280;6164;42.178;24.622;2024-01-16T07:09:15;98842.47;;;4.69;100.00
12203;BME280;6164;42.178;24.622;2024-01-16T07:11:43;98848.44;;;4.79;100.00
12203;BME280;6164;42.178;24.622;2024-01-16T07:14:10;98859.63;;;4.89;100.00
12203;BME280;6164;42.178;24.622;2024-01-16T07:16:38;98870.41;;;5.04;100.00
12203;BME280;6164;42.178;24.622;2024-01-16T07:19:04;98883.09;;;5.16;100.00
12203;BME280;6164;42.178;24.622;2024-01-16T07:21:31;98876.59;;;5.20;100.00
12203;BME280;6164;42.178;24.622;2024-01-16T07:23:59;98893.00;;;5.30;100.00
12203;BME280;6164;42.178;24.622;2024-01-16T07:26:25;98899.28;;;5.37;100.00
12203;BME280;6164;42.178;24.622;2024-01-16T07:28:52;98897.53;;;5.46;100.00
12203;BME280;6164;42.178;24.622;2024-01-16T07:31:18;98902.97;;;5.53;100.00
12203;BME280;6164;42.178;24.622;2024-01-16T07:33:46;98908.13;;;5.62;100.00
12203;BME280;6164;42.178;24.622;2024-01-16T07:36:13;98918.19;;;5.75;100.00
12203;BME280;6164;42.178;24.622;2024-01-16T07:38:40;98922.97;;;5.79;100.00
12203;BME280;6164;42.178;24.622;2024-01-16T07:41:06;98930.22;;;5.85;100.00
12203;BME280;6164;42.178;24.622;2024-01-16T07:43:33;98941.44;;;5.95;100.00
12203;BME280;6164;42.178;24.622;2024-01-16T07:46:00;98944.59;;;6.07;100.00
12203;BME280;6164;42.178;24.622;2024-01-16T07:48:27;98951.03;;;6.12;100.00
12203;BME280;6164;42.178;24.622;2024-01-16T07:50:55;98955.31;;;6.21;100.00
12203;BME280;6164;42.178;24.622;2024-01-16T07:53:21;98964.38;;;6.27;100.00
12203;BME280;6164;42.178;24.622;2024-01-16T07:55:48;98983.06;;;6.32;100.00
12203;BME280;6164;42.178;24.622;2024-01-16T07:58:14;98985.72;;;6.40;100.00
12203;BME280;6164;42.178;24.622;2024-01-16T08:00:41;98974.13;;;6.42;100.00
12203;BME280;6164;42.178;24.622;2024-01-16T08:03:07;98972.81;;;6.46;100.00
12203;BME280;6164;42.178;24.622;2024-01-16T08:05:36;98982.03;;;6.50;100.00
12203;BME280;6164;42.178;24.622;2024-01-16T08:08:04;98978.72;;;6.48;100.00
12203;BME280;6164;42.178;24.622;2024-01-16T08:10:30;98993.66;;;6.56;100.00
12203;BME280;6164;42.178;24.622;2024-01-16T08:13:00;99003.84;;;6.59;100.00
12203;BME280;6164;42.178;24.622;2024-01-16T08:15:26;99014.69;;;6.64;100.00
12203;BME280;6164;42.178;24.622;2024-01-16T08:17:53;99010.56;;;6.61;100.00
12203;BME280;6164;42.178;24.622;2024-01-16T08:20:19;99017.47;;;6.62;100.00
12203;BME280;6164;42.178;24.622;2024-01-16T08:22:46;99015.50;;;6.64;100.00
12203;BME280;6164;42.178;24.622;2024-01-16T08:25:16;99017.28;;;6.64;100.00
12203;BME280;6164;42.178;24.622;2024-01-16T08:27:43;99020.59;;;6.66;100.00
12203;BME280;6164;42.178;24.622;2024-01-16T08:30:10;99023.25;;;6.74;100.00
12203;BME280;6164;42.178;24.622;2024-01-16T08:32:40;99019.00;;;6.81;100.00
12203;BME280;6164;42.178;24.622;2024-01-16T08:35:07;99025.91;;;6.82;100.00
12203;BME280;6164;42.178;24.622;2024-01-16T08:37:34;99025.28;;;6.88;100.00
12203;BME280;6164;42.178;24.622;2024-01-16T08:40:00;99036.63;;;6.97;100.00
12203;BME280;6164;42.178;24.622;2024-01-16T08:42:29;99037.31;;;7.07;100.00
12203;BME280;6164;42.178;24.622;2024-01-16T08:44:56;99038.97;;;7.08;100.00
12203;BME280;6164;42.178;24.622;2024-01-16T08:47:22;99047.19;;;7.13;100.00
12203;BME280;6164;42.178;24.622;2024-01-16T08:49:49;99055.91;;;7.21;100.00
12203;BME280;6164;42.178;24.622;2024-01-16T08:52:16;99058.72;;;7.36;100.00
12203;BME280;6164;42.178;24.622;2024-01-16T08:54:42;99066.44;;;7.45;100.00
12203;BME280;6164;42.178;24.622;2024-01-16T08:57:09;99065.31;;;7.48;100.00
12203;BME280;6164;42.178;24.622;2024-01-16T08:59:37;99075.00;;;7.55;100.00
12203;BME280;6164;42.178;24.622;2024-01-16T09:02:04;99082.72;;;7.57;100.00
12203;BME280;6164;42.178;24.622;2024-01-16T09:04:31;99084.69;;;7.63;100.00
12203;BME280;6164;42.178;24.622;2024-01-16T09:06:58;99098.81;;;7.62;100.00
12203;BME280;6164;42.178;24.622;2024-01-16T09:09:24;99089.31;;;7.61;100.00
12203;BME280;6164;42.178;24.622;2024-01-16T09:11:51;99094.84;;;7.58;100.00
12203;BME280;6164;42.178;24.622;2024-01-16T09:14:18;99103.25;;;7.61;100.00
12203;BME280;6164;42.178;24.622;2024-01-16T09:16:46;99103.91;;;7.71;100.00
12203;BME280;6164;42.178;24.622;2024-01-16T09:19:13;99100.97;;;7.74;100.00
12203;BME280;6164;42.178;24.622;2024-01-16T09:21:40;99100.66;;;7.77;100.00
12203;BME280;6164;42.178;24.622;2024-01-16T09:24:06;99118.56;;;7.90;100.00
12203;BME280;6164;42.178;24.622;2024-01-16T09:26:33;99108.84;;;7.82;100.00
12203;BME280;6164;42.178;24.622;2024-01-16T09:29:00;99121.53;;;7.79;100.00
12203;BME280;6164;42.178;24.622;2024-01-16T09:31:26;99122.00;;;7.82;100.00
12203;BME280;6164;42.178;24.622;2024-01-16T09:33:54;99117.06;;;7.71;100.00
12203;BME280;6164;42.178;24.622;2024-01-16T09:36:21;99120.19;;;7.83;100.00
12203;BME280;6164;42.178;24.622;2024-01-16T09:38:47;99127.91;;;7.68;99.15
12203;BME280;6164;42.178;24.622;2024-01-16T09:41:14;99126.72;;;7.63;98.72
12203;BME280;6164;42.178;24.622;2024-01-16T09:43:40;99116.38;;;7.61;100.00
12203;BME280;6164;42.178;24.622;2024-01-16T09:46:07;99108.66;;;7.68;100.00
12203;BME280;6164;42.178;24.622;2024-01-16T09:48:35;99126.09;;;7.77;96.56
12203;BME280;6164;42.178;24.622;2024-01-16T09:51:04;99138.09;;;7.79;93.69
12203;BME280;6164;42.178;24.622;2024-01-16T09:53:30;99133.50;;;7.81;95.05
12203;BME280;6164;42.178;24.622;2024-01-16T09:55:57;99128.75;;;7.93;96.23
12203;BME280;6164;42.178;24.622;2024-01-16T09:58:26;99148.81;;;8.02;93.73
12203;BME280;6164;42.178;24.622;2024-01-16T10:00:54;99167.22;;;8.10;89.29
12203;BME280;6164;42.178;24.622;2024-01-16T10:03:21;99175.44;;;8.07;84.63
12203;BME280;6164;42.178;24.622;2024-01-16T10:05:48;99168.19;;;8.17;87.36
12203;BME280;6164;42.178;24.622;2024-01-16T10:08:16;99182.00;;;8.19;84.01
12203;BME280;6164;42.178;24.622;2024-01-16T10:10:46;99182.03;;;8.27;82.22
12203;BME280;6164;42.178;24.622;2024-01-16T10:13:13;99201.41;;;8.18;78.91
12203;BME280;6164;42.178;24.622;2024-01-16T10:15:41;99203.38;;;8.16;76.72
12203;BME280;6164;42.178;24.622;2024-01-16T10:18:10;99215.53;;;8.17;77.08
12203;BME280;6164;42.178;24.622;2024-01-16T10:20:47;99206.88;;;8.25;77.73
12203;BME280;6164;42.178;24.622;2024-01-16T10:23:17;99209.84;;;8.30;77.53
12203;BME280;6164;42.178;24.622;2024-01-16T10:26:06;99216.88;;;8.29;76.72
12203;BME280;6164;42.178;24.622;2024-01-16T10:28:33;99225.09;;;8.26;74.81
12203;BME280;6164;42.178;24.622;2024-01-16T10:31:03;99219.84;;;8.34;76.19
12203;BME280;6164;42.178;24.622;2024-01-16T10:33:30;99211.97;;;8.34;77.30
12203;BME280;6164;42.178;24.622;2024-01-16T10:36:10;99219.84;;;8.34;75.75
12203;BME280;6164;42.178;24.622;2024-01-16T10:38:38;99240.06;;;8.26;75.06
12203;BME280;6164;42.178;24.622;2024-01-16T10:41:11;99252.41;;;8.25;73.20
12203;BME280;6164;42.178;24.622;2024-01-16T10:43:37;99261.25;;;8.24;74.22
12203;BME280;6164;42.178;24.622;2024-01-16T10:46:08;99257.91;;;8.14;72.69
12203;BME280;6164;42.178;24.622;2024-01-16T10:48:35;99253.81;;;8.12;73.37
12203;BME280;6164;42.178;24.622;2024-01-16T10:51:01;99247.75;;;8.19;74.14
12203;BME280;6164;42.178;24.622;2024-01-16T10:53:28;99239.53;;;8.22;73.82
12203;BME280;6164;42.178;24.622;2024-01-16T10:56:00;99267.03;;;8.28;70.26
12203;BME280;6164;42.178;24.622;2024-01-16T10:58:27;99275.09;;;8.34;70.85
12203;BME280;6164;42.178;24.622;2024-01-16T11:00:57;99268.84;;;8.35;71.15
12203;BME280;6164;42.178;24.622;2024-01-16T11:03:24;99278.22;;;8.30;69.76
12203;BME280;6164;42.178;24.622;2024-01-16T11:05:52;99265.72;;;8.40;70.39
12203;BME280;6164;42.178;24.622;2024-01-16T11:08:20;99270.31;;;8.38;69.85
12203;BME280;6164;42.178;24.622;2024-01-16T11:10:47;99266.22;;;8.35;70.20
12203;BME280;6164;42.178;24.622;2024-01-16T11:13:16;99267.03;;;8.44;70.15
12203;BME280;6164;42.178;24.622;2024-01-16T11:15:43;99271.84;;;8.48;69.12
12203;BME280;6164;42.178;24.622;2024-01-16T11:18:13;99282.66;;;8.45;68.88
12203;BME280;6164;42.178;24.622;2024-01-16T11:20:41;99287.28;;;8.43;68.61
12203;BME280;6164;42.178;24.622;2024-01-16T11:23:10;99277.09;;;8.48;68.95
12203;BME280;6164;42.178;24.622;2024-01-16T11:25:37;99284.50;;;8.53;68.29
12203;BME280;6164;42.178;24.622;2024-01-16T11:28:07;99291.56;;;8.60;68.79
12203;BME280;6164;42.178;24.622;2024-01-16T11:30:35;99288.44;;;8.57;68.43
12203;BME280;6164;42.178;24.622;2024-01-16T11:33:02;99300.78;;;8.56;67.92
12203;BME280;6164;42.178;24.622;2024-01-16T11:35:33;99299.00;;;8.65;66.88
12203;BME280;6164;42.178;24.622;2024-01-16T11:38:03;99292.91;;;8.72;67.67
12203;BME280;6164;42.178;24.622;2024-01-16T11:40:31;99291.91;;;8.81;67.00
12203;BME280;6164;42.178;24.622;2024-01-16T11:42:58;99315.41;;;8.75;66.35
12203;BME280;6164;42.178;24.622;2024-01-16T11:48:10;99329.75;;;8.72;64.82
12203;BME280;6164;42.178;24.622;2024-01-16T11:50:37;99340.09;;;8.66;64.31
12203;BME280;6164;42.178;24.622;2024-01-16T11:53:03;99349.97;;;8.72;64.07
12203;BME280;6164;42.178;24.622;2024-01-16T11:55:31;99347.50;;;8.86;65.19
12203;BME280;6164;42.178;24.622;2024-01-16T11:58:15;99367.59;;;8.95;62.96
12203;BME280;6164;42.178;24.622;2024-01-16T12:00:47;99385.38;;;9.01;63.34
12203;BME280;6164;42.178;24.622;2024-01-16T12:03:18;99398.53;;;9.09;61.43
12203;BME280;6164;42.178;24.622;2024-01-16T12:05:54;99420.94;;;9.13;60.19
12203;BME280;6164;42.178;24.622;2024-01-16T12:08:21;99424.41;;;9.22;60.42
12203;BME280;6164;42.178;24.622;2024-01-16T12:10:48;99429.84;;;9.45;60.51
12203;BME280;6164;42.178;24.622;2024-01-16T12:13:14;99450.41;;;9.57;59.51
12203;BME280;6164;42.178;24.622;2024-01-16T12:15:41;99445.97;;;9.66;60.45
12203;BME280;6164;42.178;24.622;2024-01-16T12:18:08;99472.66;;;9.71;58.58
12203;BME280;6164;42.178;24.622;2024-01-16T12:20:36;99488.28;;;9.72;57.36
12203;BME280;6164;42.178;24.622;2024-01-16T12:23:04;99516.81;;;9.77;55.92
12203;BME280;6164;42.178;24.622;2024-01-16T12:25:31;99530.97;;;9.68;56.21
12203;BME280;6164;42.178;24.622;2024-01-16T12:27:58;99498.50;;;9.75;58.87
12203;BME280;6164;42.178;24.622;2024-01-16T12:30:25;99493.91;;;9.93;58.56
12203;BME280;6164;42.178;24.622;2024-01-16T12:33:02;99517.31;;;9.88;56.47
12203;BME280;6164;42.178;24.622;2024-01-16T12:35:28;99542.50;;;9.91;56.07
12203;BME280;6164;42.178;24.622;2024-01-16T12:38:00;99556.66;;;9.66;55.69
12203;BME280;6164;42.178;24.622;2024-01-16T12:40:27;99544.97;;;9.52;57.10
12203;BME280;6164;42.178;24.622;2024-01-16T12:42:54;99546.59;;;9.45;56.02
12203;BME280;6164;42.178;24.622;2024-01-16T12:45:21;99567.50;;;9.47;56.33
12203;BME280;6164;42.178;24.622;2024-01-16T12:47:50;99541.66;;;9.42;57.59
12203;BME280;6164;42.178;24.622;2024-01-16T12:50:21;99542.81;;;9.48;57.38
12203;BME280;6164;42.178;24.622;2024-01-16T12:52:48;99557.63;;;9.41;56.38
12203;BME280;6164;42.178;24.622;2024-01-16T12:55:16;99552.38;;;9.41;57.49
12203;BME280;6164;42.178;24.622;2024-01-16T12:57:44;99547.88;;;9.33;57.46
12203;BME280;6164;42.178;24.622;2024-01-16T13:00:23;99566.16;;;9.26;57.47
12203;BME280;6164;42.178;24.622;2024-01-16T13:02:50;99561.53;;;9.28;57.00
12203;BME280;6164;42.178;24.622;2024-01-16T13:05:17;99561.88;;;9.25;56.75